Terminal Aerodrome Forecast
Issued by NWS

Home | Current Version | Previous Version | Text Only | Print | Product List | Glossary On
Versions: 1 2 3 4 5 6 7 8 9 10 11 12 13 14 15 16 17 18 19 20 21 22 23 24 25 26 27 28 29 30 31 32 33
000
FTUS44 KOUN 271728
TAFWWR
TAF
KWWR 271728Z 2718/2818 16012KT P6SM SCT050 BKN100
      TEMPO 2718/2721 VRB15KT 5SM -TSRA BR BKN060CB OVC100
     FM272100 16013KT P6SM SCT070 BKN150
      TEMPO 2721/2801 VRB35KT 4SM -TSRA BR BKN050CB OVC100=

USA.gov is the U.S. government's official web portal to all federal, state and local government web resources and services.